createdAt,value
2018-09-22T00:00:25.527Z,100735.37
2018-09-22T00:02:55.591Z,100733.52
2018-09-22T00:05:25.913Z,100732.18
2018-09-22T00:07:56.448Z,100737.94
2018-09-22T00:10:27.129Z,100735.54
2018-09-22T00:13:01.492Z,100746.23
2018-09-22T00:15:32.285Z,100733.86
2018-09-22T00:18:02.507Z,100737.88
2018-09-22T00:20:34.956Z,100739.22
2018-09-22T00:23:05.239Z,100739.80
2018-09-22T00:25:35.513Z,100746.81
2018-09-22T00:28:07.422Z,100749.16
2018-09-22T00:30:37.820Z,100743.38
2018-09-22T00:33:08.761Z,100742.33
2018-09-22T00:35:39.368Z,100736.55
2018-09-22T00:38:11.906Z,100727.23
2018-09-22T00:40:42.805Z,100727.05
2018-09-22T00:43:13.473Z,100737.89
2018-09-22T00:45:45.429Z,100743.83
2018-09-22T00:48:17.735Z,100756.81
2018-09-22T00:50:49.569Z,100756.47
2018-09-22T00:53:20.296Z,100761.14
2018-09-22T00:55:50.798Z,100756.89
2018-09-22T00:58:22.932Z,100787.77
2018-09-22T01:00:54.322Z,100779.63
2018-09-22T01:03:27.884Z,100784.77
2018-09-22T01:05:58.567Z,100797.07
2018-09-22T01:08:28.789Z,100798.97
2018-09-22T01:11:00.735Z,100804.50
2018-09-22T01:13:32.613Z,100811.79
2018-09-22T01:16:03.713Z,100812.11
2018-09-22T01:18:33.810Z,100818.80
2018-09-22T01:21:04.353Z,100827.55
2018-09-22T01:23:35.290Z,100832.03
2018-09-22T01:26:08.690Z,100822.25
2018-09-22T01:28:39.785Z,100837.66
2018-09-22T01:31:09.934Z,100847.73
2018-09-22T01:33:40.146Z,100844.28
2018-09-22T01:36:10.375Z,100834.97
2018-09-22T01:38:41.297Z,100833.90
2018-09-22T01:41:12.728Z,100832.97
2018-09-22T01:43:43.705Z,100843.94
2018-09-22T01:46:15.700Z,100848.70
2018-09-22T01:48:45.997Z,100847.88
2018-09-22T01:51:18.668Z,100854.31
2018-09-22T01:53:48.758Z,100871.40
2018-09-22T01:56:18.881Z,100881.14
2018-09-22T01:58:49.923Z,100874.03
2018-09-22T02:01:21.870Z,100880.55
2018-09-22T02:03:51.903Z,100891.93
2018-09-22T02:06:22.325Z,100899.08
2018-09-22T02:08:53.846Z,100902.83
2018-09-22T02:11:23.888Z,100907.27
2018-09-22T02:13:54.528Z,100910.91
2018-09-22T02:16:24.891Z,100913.66
2018-09-22T02:18:57.366Z,100907.37
2018-09-22T02:21:27.593Z,100895.53
2018-09-22T02:23:58.442Z,100891.03
2018-09-22T02:26:28.795Z,100899.91
2018-09-22T02:29:01.200Z,100905.69
2018-09-22T02:31:31.961Z,100916.19
2018-09-22T02:34:02.591Z,100894.37
2018-09-22T02:36:32.885Z,100901.73
2018-09-22T02:39:06.186Z,100886.66
2018-09-22T02:41:36.093Z,100891.13
2018-09-22T02:44:06.831Z,100907.63
2018-09-22T02:46:37.186Z,100910.78
2018-09-22T02:49:06.982Z,100912.75
2018-09-22T02:51:36.670Z,100912.66
2018-09-22T02:54:06.180Z,100918.16
2018-09-22T02:56:36.500Z,100922.52
2018-09-22T02:59:06.995Z,100933.61
2018-09-22T03:01:36.740Z,100937.04
2018-09-22T03:04:07.033Z,100933.36
2018-09-22T03:06:37.406Z,100933.58
2018-09-22T03:09:10.167Z,100936.67
2018-09-22T03:11:41.250Z,100940.02
2018-09-22T03:14:11.358Z,100934.06
2018-09-22T03:16:41.860Z,100929.45
2018-09-22T03:19:11.895Z,100937.01
2018-09-22T03:21:42.099Z,100942.30
2018-09-22T03:24:15.511Z,100943.97
2018-09-22T03:26:55.998Z,100952.16
2018-09-22T03:29:27.847Z,100957.38
2018-09-22T03:32:01.011Z,100959.61
2018-09-22T03:34:50.980Z,100971.33
2018-09-22T03:37:22.142Z,100972.00
2018-09-22T03:39:59.239Z,100973.55
2018-09-22T03:42:29.597Z,100984.47
2018-09-22T03:45:03.947Z,100991.34
2018-09-22T03:47:47.113Z,100978.09
2018-09-22T03:50:19.138Z,100981.52
2018-09-22T03:52:49.277Z,100984.39
2018-09-22T03:55:19.928Z,100991.58
2018-09-22T03:57:59.376Z,100996.52
2018-09-22T04:00:29.720Z,100998.12
2018-09-22T04:02:59.744Z,100992.23
2018-09-22T04:05:30.697Z,100997.99
2018-09-22T04:08:00.660Z,100996.09
2018-09-22T04:10:31.763Z,101003.28
2018-09-22T04:13:02.395Z,101010.32
2018-09-22T04:15:32.528Z,101012.14
2018-09-22T04:18:02.545Z,101014.20
2018-09-22T04:20:33.287Z,101016.48
2018-09-22T04:23:06.046Z,101012.28
2018-09-22T04:25:38.598Z,101015.63
2018-09-22T04:28:08.743Z,101020.36
2018-09-22T04:30:39.035Z,101034.84
2018-09-22T04:33:09.452Z,101039.58
2018-09-22T04:35:41.257Z,101031.50
2018-09-22T04:38:26.330Z,101039.59
2018-09-22T04:44:25.345Z,101042.59
2018-09-22T04:50:12.524Z,101055.00
2018-09-22T04:52:43.128Z,101049.12
2018-09-22T04:55:14.433Z,101051.39
2018-09-22T04:57:44.686Z,101050.53
2018-09-22T05:00:17.151Z,101054.48
2018-09-22T05:02:47.441Z,101066.65
2018-09-22T05:05:17.622Z,101072.22
2018-09-22T05:07:48.559Z,101075.70
2018-09-22T05:10:18.537Z,101078.75
2018-09-22T05:12:49.980Z,101093.47
2018-09-22T05:15:20.096Z,101082.42
2018-09-22T05:17:51.753Z,101088.11
2018-09-22T05:20:23.511Z,101090.13
2018-09-22T05:22:53.757Z,101092.69
2018-09-22T05:25:32.270Z,101093.61
2018-09-22T05:28:03.247Z,101091.40
2018-09-22T05:30:35.354Z,101095.56
2018-09-22T05:33:07.105Z,101103.39
2018-09-22T05:35:37.738Z,101111.02
2018-09-22T05:38:07.991Z,101114.91
2018-09-22T05:40:38.592Z,101107.42
2018-09-22T05:43:09.178Z,101111.44
2018-09-22T05:45:41.295Z,101110.55
2018-09-22T05:48:11.493Z,101111.78
2018-09-22T05:50:43.835Z,101120.34
2018-09-22T05:53:14.417Z,101115.50
2018-09-22T05:55:47.404Z,101122.09
2018-09-22T05:58:19.071Z,101119.41
2018-09-22T06:00:50.313Z,101119.09
2018-09-22T06:03:20.686Z,101114.55
2018-09-22T06:05:50.809Z,101119.70
2018-09-22T06:08:21.196Z,101111.17
2018-09-22T06:10:51.482Z,101120.45
2018-09-22T06:13:21.635Z,101119.05
2018-09-22T06:15:56.140Z,101123.39
2018-09-22T06:18:28.312Z,101133.70
2018-09-22T06:21:01.211Z,101130.69
2018-09-22T06:23:33.313Z,101140.36
2018-09-22T06:26:06.666Z,101136.31
2018-09-22T06:28:39.724Z,101131.43
2018-09-22T06:31:10.438Z,101128.23
2018-09-22T06:33:42.618Z,101128.23
2018-09-22T06:36:15.723Z,101140.30
2018-09-22T06:38:46.234Z,101140.57
2018-09-22T06:41:18.914Z,101139.48
2018-09-22T06:43:49.395Z,101141.67
2018-09-22T06:46:20.303Z,101151.85
2018-09-22T06:49:31.915Z,101162.59
2018-09-22T06:52:02.953Z,101158.70
2018-09-22T06:54:33.048Z,101148.97
2018-09-22T06:57:05.938Z,101145.95
2018-09-22T06:59:37.772Z,101135.40
2018-09-22T07:02:09.549Z,101137.66
2018-09-22T07:04:40.428Z,101130.77
2018-09-22T07:07:10.657Z,101139.45
2018-09-22T07:09:40.861Z,101135.05
2018-09-22T07:12:11.083Z,101143.53
2018-09-22T07:14:41.208Z,101141.92
2018-09-22T07:17:11.834Z,101136.31
2018-09-22T07:19:41.698Z,101150.84
2018-09-22T07:22:16.735Z,101139.22
2018-09-22T07:24:47.365Z,101143.34
2018-09-22T07:27:17.543Z,101147.28
2018-09-22T07:29:47.708Z,101142.72
2018-09-22T07:32:21.718Z,101143.71
2018-09-22T07:34:51.931Z,101139.78
2018-09-22T07:37:23.635Z,101149.92
2018-09-22T07:39:53.703Z,101142.34
2018-09-22T07:42:26.154Z,101148.73
2018-09-22T07:44:55.970Z,101145.95
2018-09-22T07:47:26.376Z,101143.84
2018-09-22T07:49:56.378Z,101142.94
2018-09-22T07:52:26.360Z,101164.41
2018-09-22T07:54:56.295Z,101151.24
2018-09-22T07:57:26.284Z,101149.86
2018-09-22T07:59:56.943Z,101148.41
2018-09-22T08:02:27.030Z,101146.77
2018-09-22T08:04:57.001Z,101150.79
2018-09-22T08:07:26.995Z,101150.02
2018-09-22T08:09:57.055Z,101155.83
2018-09-22T08:12:27.518Z,101145.97
2018-09-22T08:14:57.549Z,101154.97
2018-09-22T08:17:27.542Z,101151.18
2018-09-22T08:19:57.712Z,101155.52
2018-09-22T08:22:27.617Z,101161.05
2018-09-22T08:24:58.303Z,101155.92
2018-09-22T08:27:28.524Z,101155.95
2018-09-22T08:29:58.687Z,101153.74
2018-09-22T08:32:28.668Z,101162.72
2018-09-22T08:34:59.540Z,101171.56
2018-09-22T08:37:29.517Z,101208.47
2018-09-22T08:40:00.150Z,101192.27
2018-09-22T08:42:30.674Z,101189.57
2018-09-22T08:45:00.880Z,101187.98
2018-09-22T08:47:31.223Z,101179.72
2018-09-22T08:50:01.768Z,101184.21
2018-09-22T08:53:25.230Z,101174.27
2018-09-22T08:55:59.559Z,101171.14
2018-09-22T08:58:31.221Z,101169.31
2018-09-22T09:01:03.460Z,101165.81
2018-09-22T09:03:33.938Z,101164.88
2018-09-22T09:06:05.142Z,101161.02
2018-09-22T09:08:37.117Z,101158.98
2018-09-22T09:11:12.736Z,101163.39
2018-09-22T09:13:44.749Z,101165.28
2018-09-22T09:16:17.610Z,101168.38
2018-09-22T09:18:48.598Z,101168.55
2018-09-22T09:21:26.345Z,101163.08
2018-09-22T09:23:57.681Z,101173.48
2018-09-22T09:26:28.532Z,101168.19
2018-09-22T09:28:59.301Z,101167.38
2018-09-22T09:31:31.025Z,101176.91
2018-09-22T09:34:02.750Z,101191.68
2018-09-22T09:36:33.068Z,101191.70
2018-09-22T09:39:04.085Z,101179.91
2018-09-22T09:41:35.389Z,101199.56
2018-09-22T09:44:06.231Z,101195.83
2018-09-22T09:46:36.448Z,101206.91
2018-09-22T09:49:09.149Z,101208.77
2018-09-22T09:51:39.579Z,101194.64
2018-09-22T09:55:07.272Z,101193.81
2018-09-22T09:57:38.087Z,101195.97
2018-09-22T10:00:10.133Z,101196.21
2018-09-22T10:02:40.957Z,101202.89
2018-09-22T10:05:13.886Z,101195.12
2018-09-22T10:07:44.339Z,101208.66
2018-09-22T10:10:14.807Z,101212.53
2018-09-22T10:12:44.996Z,101236.89
2018-09-22T10:15:15.452Z,101237.59
2018-09-22T10:17:46.354Z,101218.35
2018-09-22T10:20:20.412Z,101215.45
2018-09-22T10:22:54.607Z,101211.79
2018-09-22T10:27:25.683Z,101208.41
2018-09-22T10:32:40.824Z,101202.23
2018-09-22T10:35:12.224Z,101198.45
2018-09-22T10:37:44.981Z,101179.14
2018-09-22T10:40:18.452Z,101175.70
2018-09-22T10:42:51.570Z,101178.56
2018-09-22T10:45:21.972Z,101172.70
2018-09-22T10:47:51.977Z,101169.10
2018-09-22T10:50:22.393Z,101158.77
2018-09-22T10:52:52.871Z,101165.36
2018-09-22T10:55:23.057Z,101167.10
2018-09-22T10:57:54.736Z,101165.88
2018-09-22T11:00:27.710Z,101173.23
2018-09-22T11:02:59.078Z,101165.52
2018-09-22T11:05:31.855Z,101168.94
2018-09-22T11:08:03.933Z,101172.23
2018-09-22T11:10:37.186Z,101174.83
2018-09-22T11:13:08.748Z,101164.73
2018-09-22T11:15:42.794Z,101170.66
2018-09-22T11:18:13.389Z,101153.78
2018-09-22T11:20:44.328Z,101157.92
2018-09-22T11:23:16.794Z,101154.20
2018-09-22T11:25:47.543Z,101157.08
2018-09-22T11:28:20.670Z,101148.08
2018-09-22T11:30:53.811Z,101144.64
2018-09-22T11:33:24.126Z,101161.23
2018-09-22T11:36:07.468Z,101168.83
2018-09-22T11:38:39.234Z,101176.59
2018-09-22T11:41:14.664Z,101165.20
2018-09-22T11:43:46.925Z,101153.97
2018-09-22T11:46:18.326Z,101164.77
2018-09-22T11:48:48.815Z,101174.93
2018-09-22T11:53:59.936Z,101165.37
2018-09-22T11:56:30.393Z,101157.83
2018-09-22T11:59:01.023Z,101162.87
2018-09-22T12:01:31.173Z,101157.08
2018-09-22T12:04:01.407Z,101169.49
2018-09-22T12:06:31.669Z,101170.23
2018-09-22T12:09:03.891Z,101167.98
2018-09-22T12:11:39.757Z,101170.81
2018-09-22T12:14:13.027Z,101181.20
2018-09-22T12:16:43.765Z,101161.48
2018-09-22T12:19:14.192Z,101168.98
2018-09-22T12:21:44.973Z,101163.19
2018-09-22T12:24:15.278Z,101159.28
2018-09-22T12:26:46.313Z,101164.78
2018-09-22T12:29:20.820Z,101166.79
2018-09-22T12:31:52.340Z,101172.63
2018-09-22T12:34:23.507Z,101185.14
2018-09-22T12:36:54.559Z,101187.75
2018-09-22T12:39:24.883Z,101194.59
2018-09-22T12:41:55.222Z,101247.45
2018-09-22T12:44:26.258Z,101232.77
2018-09-22T12:46:56.224Z,101234.80
2018-09-22T12:49:27.177Z,101227.73
2018-09-22T12:52:00.523Z,101238.39
2018-09-22T12:54:37.195Z,101237.54
2018-09-22T12:57:08.412Z,101244.72
2018-09-22T12:59:39.823Z,101224.23
2018-09-22T13:02:11.148Z,101233.22
2018-09-22T13:04:42.133Z,101224.62
2018-09-22T13:07:12.563Z,101221.16
2018-09-22T13:09:43.069Z,101226.63
2018-09-22T13:12:13.402Z,101219.35
2018-09-22T13:14:44.376Z,101221.30
2018-09-22T13:18:45.379Z,101218.84
2018-09-22T13:21:15.536Z,101222.58
2018-09-22T13:23:50.145Z,101226.84
2018-09-22T13:26:22.003Z,101233.86
2018-09-22T13:28:53.001Z,101230.45
2018-09-22T13:31:23.655Z,101228.34
2018-09-22T13:33:54.211Z,101242.06
2018-09-22T13:36:26.589Z,101237.84
2018-09-22T13:38:58.242Z,101251.81
2018-09-22T13:41:29.140Z,101252.93
2018-09-22T13:44:02.054Z,101246.02
2018-09-22T13:46:34.016Z,101244.58
2018-09-22T13:49:05.645Z,101238.33
2018-09-22T13:51:37.469Z,101231.69
2018-09-22T13:54:09.692Z,101231.28
2018-09-22T13:56:40.474Z,101235.23
2018-09-22T13:59:11.562Z,101224.72
2018-09-22T14:01:42.878Z,101224.14
2018-09-22T14:06:57.973Z,101225.83
2018-09-22T14:09:28.292Z,101220.35
2018-09-22T14:11:59.401Z,101219.90
2018-09-22T14:14:30.505Z,101217.84
2018-09-22T14:17:03.211Z,101217.20
2018-09-22T14:19:33.903Z,101212.91
2018-09-22T14:22:06.686Z,101208.66
2018-09-22T14:24:40.953Z,101216.89
2018-09-22T14:27:12.825Z,101217.14
2018-09-22T14:29:47.291Z,101216.97
2018-09-22T14:32:18.317Z,101212.94
2018-09-22T14:37:28.258Z,101202.47
2018-09-22T14:39:58.642Z,101207.23
2018-09-22T14:42:30.811Z,101195.09
2018-09-22T14:45:01.101Z,101205.26
2018-09-22T14:47:32.688Z,101196.06
2018-09-22T14:50:02.996Z,101188.87
2018-09-22T14:52:33.416Z,101189.16
2018-09-22T14:55:03.493Z,101200.80
2018-09-22T14:57:33.763Z,101202.28
2018-09-22T15:00:04.085Z,101197.92
2018-09-22T15:02:34.431Z,101192.84
2018-09-22T15:05:04.934Z,101196.84
2018-09-22T15:07:37.630Z,101203.17
2018-09-22T15:10:07.841Z,101197.47
2018-09-22T15:12:38.468Z,101198.32
2018-09-22T15:15:09.328Z,101192.92
2018-09-22T15:17:39.975Z,101192.16
2018-09-22T15:20:09.890Z,101190.56
2018-09-22T15:22:41.923Z,101199.47
2018-09-22T15:25:13.777Z,101194.81
2018-09-22T15:27:44.174Z,101199.80
2018-09-22T15:30:16.307Z,101197.48
2018-09-22T15:32:48.236Z,101192.31
2018-09-22T15:35:18.965Z,101190.97
2018-09-22T15:37:51.355Z,101193.42
2018-09-22T15:40:22.043Z,101191.83
2018-09-22T15:42:52.362Z,101194.71
2018-09-22T15:45:23.586Z,101192.68
2018-09-22T15:47:55.664Z,101183.46
2018-09-22T15:50:27.111Z,101207.12
2018-09-22T15:52:59.639Z,101206.48
2018-09-22T15:55:30.022Z,101195.16
2018-09-22T15:58:00.848Z,101184.34
2018-09-22T16:00:31.331Z,101191.88
2018-09-22T16:03:02.890Z,101189.59
2018-09-22T16:05:33.262Z,101185.78
2018-09-22T16:08:03.842Z,101179.85
2018-09-22T16:10:35.480Z,101179.81
2018-09-22T16:13:06.039Z,101175.91
2018-09-22T16:15:37.114Z,101182.96
2018-09-22T16:18:08.763Z,101184.17
2018-09-22T16:20:38.685Z,101185.30
2018-09-22T16:23:11.787Z,101176.89
2018-09-22T16:25:42.504Z,101180.31
2018-09-22T16:28:13.611Z,101176.23
2018-09-22T16:30:44.965Z,101179.78
2018-09-22T16:33:15.018Z,101176.86
2018-09-22T16:35:45.950Z,101169.89
2018-09-22T16:38:15.927Z,101175.25
2018-09-22T16:40:46.789Z,101179.42
2018-09-22T16:43:17.032Z,101173.80
2018-09-22T16:45:48.883Z,101189.95
2018-09-22T16:48:19.898Z,101181.97
2018-09-22T16:50:50.033Z,101174.69
2018-09-22T16:53:20.976Z,101179.19
2018-09-22T16:55:51.200Z,101178.92
2018-09-22T16:58:22.147Z,101175.95
2018-09-22T17:00:52.700Z,101186.00
2018-09-22T17:03:23.639Z,101185.67
2018-09-22T17:05:54.244Z,101192.98
2018-09-22T17:08:26.533Z,101198.11
2018-09-22T17:11:00.646Z,101196.62
2018-09-22T17:13:33.698Z,101194.31
2018-09-22T17:16:04.461Z,101205.59
2018-09-22T17:18:38.772Z,101194.66
2018-09-22T17:21:09.773Z,101197.19
2018-09-22T17:23:42.202Z,101193.77
2018-09-22T17:26:12.673Z,101195.50
2018-09-22T17:28:42.689Z,101196.45
2018-09-22T17:31:13.114Z,101194.54
2018-09-22T17:33:43.872Z,101194.54
2018-09-22T17:36:14.142Z,101190.27
2018-09-22T17:38:44.726Z,101185.05
2018-09-22T17:41:14.890Z,101190.21
2018-09-22T17:43:47.109Z,101188.23
2018-09-22T17:46:19.020Z,101189.00
2018-09-22T17:48:51.394Z,101204.84
2018-09-22T17:51:21.971Z,101205.84
2018-09-22T17:53:51.930Z,101199.28
2018-09-22T17:56:23.184Z,101206.30
2018-09-22T17:58:54.300Z,101212.00
2018-09-22T18:01:24.866Z,101212.41
2018-09-22T18:03:55.197Z,101215.75
2018-09-22T18:06:25.431Z,101216.92
2018-09-22T18:08:56.029Z,101218.16
2018-09-22T18:11:26.203Z,101216.72
2018-09-22T18:13:56.885Z,101210.73
2018-09-22T18:16:28.072Z,101211.75
2018-09-22T18:19:00.641Z,101215.61
2018-09-22T18:21:31.545Z,101218.63
2018-09-22T18:24:03.811Z,101212.14
2018-09-22T18:26:36.062Z,101219.16
2018-09-22T18:29:07.960Z,101223.36
2018-09-22T18:31:38.361Z,101216.58
2018-09-22T18:34:09.269Z,101219.78
2018-09-22T18:36:42.376Z,101211.97
2018-09-22T18:39:15.609Z,101214.05
2018-09-22T18:41:45.922Z,101212.55
2018-09-22T18:44:16.119Z,101226.06
2018-09-22T18:46:46.751Z,101229.25
2018-09-22T18:49:17.120Z,101230.61
2018-09-22T18:51:47.189Z,101237.03
2018-09-22T18:54:18.595Z,101230.31
2018-09-22T18:56:49.013Z,101232.66
2018-09-22T18:59:20.051Z,101240.38
2018-09-22T19:01:51.042Z,101238.92
2018-09-22T19:04:22.365Z,101234.41
2018-09-22T19:06:52.975Z,101239.45
2018-09-22T19:09:23.044Z,101240.64
2018-09-22T19:11:53.851Z,101241.14
2018-09-22T19:14:32.860Z,101246.91
2018-09-22T19:17:13.580Z,101244.97
2018-09-22T19:19:48.207Z,101244.20
2018-09-22T19:22:33.643Z,101241.41
2018-09-22T19:25:06.807Z,101240.72
2018-09-22T19:27:44.355Z,101245.23
2018-09-22T19:30:49.036Z,101246.97
2018-09-22T19:33:37.271Z,101247.50
2018-09-22T19:36:11.733Z,101243.82
2018-09-22T19:38:52.417Z,101239.80
2018-09-22T19:41:26.125Z,101246.16
2018-09-22T19:44:21.144Z,101246.72
2018-09-22T19:46:56.421Z,101255.28
2018-09-22T19:49:33.446Z,101255.91
2018-09-22T19:52:07.484Z,101260.53
2018-09-22T19:54:38.980Z,101259.13
2018-09-22T19:57:10.207Z,101264.70
2018-09-22T19:59:40.416Z,101265.15
2018-09-22T20:02:12.626Z,101262.09
2018-09-22T20:07:23.788Z,101268.19
2018-09-22T20:09:53.962Z,101274.09
2018-09-22T20:12:23.988Z,101265.56
2018-09-22T20:14:56.904Z,101260.30
2018-09-22T20:17:27.048Z,101255.69
2018-09-22T20:19:59.710Z,101259.02
2018-09-22T20:22:32.996Z,101257.63
2018-09-22T20:25:03.358Z,101252.92
2018-09-22T20:27:35.383Z,101256.38
2018-09-22T20:30:05.762Z,101251.81
2018-09-22T20:32:36.028Z,101256.04
2018-09-22T20:35:11.420Z,101255.25
2018-09-22T20:37:41.600Z,101249.03
2018-09-22T20:40:12.483Z,101252.68
2018-09-22T20:42:45.267Z,101262.89
2018-09-22T20:45:17.088Z,101279.30
2018-09-22T20:47:48.431Z,101271.66
2018-09-22T20:50:20.822Z,101273.68
2018-09-22T20:52:53.197Z,101277.84
2018-09-22T20:55:23.303Z,101284.44
2018-09-22T20:57:54.540Z,101281.20
2018-09-22T21:00:26.235Z,101279.53
2018-09-22T21:02:57.247Z,101276.41
2018-09-22T21:05:27.714Z,101273.07
2018-09-22T21:07:57.683Z,101278.80
2018-09-22T21:10:27.918Z,101288.58
2018-09-22T21:12:58.229Z,101276.58
2018-09-22T21:15:29.319Z,101278.80
2018-09-22T21:17:59.268Z,101281.60
2018-09-22T21:20:29.902Z,101284.20
2018-09-22T21:23:01.795Z,101296.13
2018-09-22T21:25:31.985Z,101292.80
2018-09-22T21:28:02.319Z,101289.15
2018-09-22T21:30:32.986Z,101283.84
2018-09-22T21:33:04.846Z,101271.67
2018-09-22T21:35:36.232Z,101274.53
2018-09-22T21:38:06.265Z,101267.20
2018-09-22T21:40:36.264Z,101259.57
2018-09-22T21:43:05.883Z,101270.72
2018-09-22T21:45:36.094Z,101264.45
2018-09-22T21:48:07.235Z,101264.53
2018-09-22T21:50:37.456Z,101278.28
2018-09-22T21:53:07.537Z,101275.80
2018-09-22T21:55:37.737Z,101286.23
2018-09-22T21:58:08.973Z,101285.02
2018-09-22T22:00:41.007Z,101287.33
2018-09-22T22:03:13.175Z,101286.74
2018-09-22T22:05:45.497Z,101276.05
2018-09-22T22:08:18.582Z,101276.27
2018-09-22T22:10:48.670Z,101272.32
2018-09-22T22:13:19.695Z,101270.66
2018-09-22T22:15:50.118Z,101272.41
2018-09-22T22:18:20.745Z,101273.06
2018-09-22T22:20:51.540Z,101271.98
2018-09-22T22:23:21.832Z,101277.37
2018-09-22T22:25:51.917Z,101274.59
2018-09-22T22:28:23.625Z,101274.60
2018-09-22T22:30:55.209Z,101282.80
2018-09-22T22:33:25.634Z,101283.91
2018-09-22T22:35:57.610Z,101294.21
2018-09-22T22:38:29.817Z,101295.48
2018-09-22T22:41:00.338Z,101298.23
2018-09-22T22:43:31.503Z,101291.47
2018-09-22T22:46:01.577Z,101285.95
2018-09-22T22:49:47.197Z,101282.58
2018-09-22T22:52:17.221Z,101280.86
2018-09-22T22:54:47.941Z,101276.64
2018-09-22T22:57:20.191Z,101281.45
2018-09-22T22:59:50.875Z,101277.06
2018-09-22T23:02:22.351Z,101275.78
2018-09-22T23:04:54.441Z,101269.95
2018-09-22T23:07:25.400Z,101281.23
2018-09-22T23:09:55.657Z,101282.70
2018-09-22T23:12:26.190Z,101275.17
2018-09-22T23:14:56.208Z,101275.56
2018-09-22T23:17:28.188Z,101274.60
2018-09-22T23:19:59.130Z,101275.66
2018-09-22T23:22:30.356Z,101271.19
2018-09-22T23:25:00.518Z,101272.81
2018-09-22T23:27:30.830Z,101279.80
2018-09-22T23:30:02.525Z,101272.53
2018-09-22T23:32:32.771Z,101267.64
2018-09-22T23:35:02.921Z,101266.05
2018-09-22T23:37:32.732Z,101263.85
2018-09-22T23:40:02.661Z,101260.22
2018-09-22T23:42:32.628Z,101260.48
2018-09-22T23:45:03.301Z,101265.70
2018-09-22T23:47:34.564Z,101273.29
2018-09-22T23:50:05.164Z,101265.92
2018-09-22T23:52:36.509Z,101268.45
2018-09-22T23:55:07.141Z,101261.62
2018-09-22T23:57:37.375Z,101267.87
